Time;durP1;ratioP1;P1;durP2;ratioP2;P2;SDS_P1;SDS_P2;PMS_P1;PMS_P2;Temp;Humidity;BMP_temperature;BMP_pressure;BME280_temperature;BME280_humidity;BME280_pressure;Samples;Min_cycle;Max_cycle;Signal;HPM_P1;HPM_P2
2023/05/14 00:01:50;;;;;;;14.07;7.30;;;;;;;8.51;92.29;100923.19;1478319;87;21599;-77
2023/05/14 00:04:18;;;;;;;14.97;7.40;;;;;;;8.52;92.00;100920.44;1455100;86;21350;-77
2023/05/14 00:06:45;;;;;;;9.57;6.07;;;;;;;8.55;91.58;100920.20;1496653;87;21407;-77
2023/05/14 00:09:12;;;;;;;9.47;6.50;;;;;;;8.57;91.89;100918.28;1486996;87;21494;-76
2023/05/14 00:11:38;;;;;;;9.93;6.43;;;;;;;8.59;91.25;100920.29;1500964;86;21360;-78
2023/05/14 00:14:04;;;;;;;13.47;7.10;;;;;;;8.58;91.21;100918.63;1497748;87;21368;-78
2023/05/14 00:16:31;;;;;;;12.70;7.67;;;;;;;8.57;91.25;100915.64;1498711;86;21397;-78
2023/05/14 00:18:57;;;;;;;14.43;7.13;;;;;;;8.54;91.56;100912.38;1487513;87;21265;-78
2023/05/14 00:21:23;;;;;;;15.20;7.90;;;;;;;8.52;91.66;100915.16;1511742;86;22279;-76
2023/05/14 00:23:50;;;;;;;13.27;7.70;;;;;;;8.49;91.39;100914.09;1529993;87;22169;-77
2023/05/14 00:26:16;;;;;;;12.47;7.53;;;;;;;8.48;92.59;100914.20;1514930;86;21368;-78
2023/05/14 00:28:42;;;;;;;11.90;7.20;;;;;;;8.45;92.43;100911.32;1530949;87;21223;-76
2023/05/14 00:31:08;;;;;;;10.67;6.30;;;;;;;8.45;92.76;100911.80;1496044;87;22160;-77
2023/05/14 00:33:35;;;;;;;15.70;8.20;;;;;;;8.45;92.01;100908.69;1467692;87;21490;-76
2023/05/14 00:36:02;;;;;;;14.13;7.13;;;;;;;8.46;92.31;100905.11;1465647;87;22455;-76
2023/05/14 00:38:28;;;;;;;8.93;6.70;;;;;;;8.42;92.09;100905.45;1500628;87;21294;-75
2023/05/14 00:40:54;;;;;;;16.20;9.13;;;;;;;8.39;91.75;100896.47;1441265;90;21472;-74
2023/05/14 00:43:22;;;;;;;9.97;7.27;;;;;;;8.33;92.94;100897.28;1458945;87;21268;-76
2023/05/14 00:45:52;;;;;;;17.53;11.40;;;;;;;8.27;92.28;100894.30;1422091;87;21453;-75
2023/05/14 00:48:20;;;;;;;13.15;7.50;;;;;;;8.21;93.09;100887.70;1532808;87;21390;-76
2023/05/14 00:50:47;;;;;;;9.57;7.13;;;;;;;8.14;93.23;100890.00;1482017;87;21506;-76
2023/05/14 00:53:14;;;;;;;14.53;8.00;;;;;;;8.09;93.54;100892.16;1420879;90;21387;-76
2023/05/14 00:55:41;;;;;;;18.83;8.40;;;;;;;8.04;93.60;100887.71;1430827;87;22293;-76
2023/05/14 00:58:13;;;;;;;9.27;6.17;;;;;;;8.01;94.41;100893.22;1522688;86;21496;-75
2023/05/14 01:00:40;;;;;;;9.97;6.63;;;;;;;7.99;94.34;100891.17;1526661;87;21494;-75
2023/05/14 01:03:07;;;;;;;14.23;8.40;;;;;;;7.99;93.60;100895.13;1470302;87;21438;-76
2023/05/14 01:05:55;;;;;;;12.03;6.97;;;;;;;8.00;93.60;100892.88;1486779;87;21282;-75
2023/05/14 01:08:47;;;;;;;11.30;7.73;;;;;;;8.00;95.23;100898.14;1454239;87;21760;-76
2023/05/14 01:11:27;;;;;;;14.57;7.23;;;;;;;8.00;93.66;100884.97;1454338;86;22225;-75
2023/05/14 01:14:30;;;;;;;13.63;7.60;;;;;;;7.98;93.99;100881.61;1478334;86;21519;-75
2023/05/14 01:16:58;;;;;;;13.67;7.37;;;;;;;7.92;93.36;100870.23;1463821;86;21536;-76
2023/05/14 01:19:43;;;;;;;9.70;7.00;;;;;;;7.82;94.44;100866.61;1446202;86;21286;-77
2023/05/14 01:22:10;;;;;;;14.67;7.27;;;;;;;7.73;94.46;100868.66;1469870;86;21449;-77
2023/05/14 01:24:37;;;;;;;10.17;6.87;;;;;;;7.68;94.58;100864.59;1467575;86;21282;-76
2023/05/14 01:27:26;;;;;;;14.33;8.30;;;;;;;7.66;95.34;100863.86;1446597;87;22303;-77
2023/05/14 01:30:18;;;;;;;12.37;7.30;;;;;;;7.62;95.31;100862.43;1475769;87;22194;-77
2023/05/14 01:32:50;;;;;;;11.90;7.77;;;;;;;7.57;95.97;100864.57;1419115;90;22215;-77
2023/05/14 01:35:16;;;;;;;;;;;;;;;7.55;96.21;100859.89;1442382;86;21537;-77
2023/05/14 01:37:43;;;;;;;13.17;7.93;;;;;;;7.54;96.76;100866.12;1475746;87;20870;-77
2023/05/14 01:40:10;;;;;;;11.40;7.23;;;;;;;7.53;96.95;100868.38;1478069;86;21309;-75
2023/05/14 01:42:37;;;;;;;13.97;8.00;;;;;;;7.52;96.21;100868.03;1451603;86;21331;-77
2023/05/14 01:45:05;;;;;;;11.13;6.93;;;;;;;7.53;96.07;100873.64;1415022;90;21379;-77
2023/05/14 01:47:31;;;;;;;12.30;7.93;;;;;;;7.52;96.98;100874.61;1438004;87;21326;-77
2023/05/14 01:49:57;;;;;;;15.87;8.20;;;;;;;7.56;95.90;100881.31;1479595;87;21490;-76
2023/05/14 01:52:24;;;;;;;9.30;6.57;;;;;;;7.56;95.81;100879.99;1465291;87;21487;-76
2023/05/14 01:54:51;;;;;;;8.93;6.53;;;;;;;7.58;95.75;100884.67;1477478;87;21242;-76
2023/05/14 01:57:17;;;;;;;14.80;6.87;;;;;;;7.59;95.29;100878.92;1464639;86;21338;-77
2023/05/14 01:59:43;;;;;;;10.57;7.33;;;;;;;7.58;95.48;100876.77;1513017;87;21375;-77
2023/05/14 02:02:10;;;;;;;12.27;6.30;;;;;;;7.58;95.69;100868.04;1520557;86;22006;-80
2023/05/14 02:04:36;;;;;;;9.93;6.70;;;;;;;7.52;95.67;100864.08;1497428;87;21367;-80
2023/05/14 02:07:02;;;;;;;12.37;6.87;;;;;;;7.40;96.56;100860.58;1499250;87;22096;-80
2023/05/14 02:09:29;;;;;;;10.73;6.50;;;;;;;7.33;95.57;100854.58;1478982;87;21451;-79
2023/05/14 02:11:55;;;;;;;9.60;6.83;;;;;;;7.31;95.41;100849.89;1495940;86;21592;-80
2023/05/14 02:14:22;;;;;;;16.07;8.50;;;;;;;7.32;95.69;100860.80;1484021;86;21485;-81
2023/05/14 02:16:50;;;;;;;11.93;7.53;;;;;;;7.33;95.94;100863.79;1465521;86;21603;-81
2023/05/14 02:19:16;;;;;;;12.30;6.23;;;;;;;7.34;96.44;100852.32;1496024;87;21330;-80
2023/05/14 02:21:42;;;;;;;10.03;7.17;;;;;;;7.36;96.43;100853.86;1489924;87;22328;-80
2023/05/14 02:24:08;;;;;;;10.63;6.90;;;;;;;7.36;96.43;100854.34;1496726;86;21739;-79
2023/05/14 02:26:34;;;;;;;13.17;7.67;;;;;;;7.36;96.17;100855.66;1486988;86;21385;-79
2023/05/14 02:29:00;;;;;;;10.83;7.10;;;;;;;7.33;96.43;100850.63;1480586;86;21633;-80
2023/05/14 02:31:27;;;;;;;11.90;7.57;;;;;;;7.26;97.30;100863.42;1441820;90;22404;-81
2023/05/14 02:33:53;;;;;;;9.87;6.77;;;;;;;7.23;96.93;100863.66;1467814;86;21712;-80
2023/05/14 02:36:20;;;;;;;10.70;6.63;;;;;;;7.22;96.23;100861.50;1469318;87;21715;-79
2023/05/14 02:38:46;;;;;;;14.90;7.17;;;;;;;7.23;96.37;100863.66;1483120;86;21470;-79
2023/05/14 02:41:13;;;;;;;13.27;7.37;;;;;;;7.21;97.52;100853.22;1490305;86;21568;-79
2023/05/14 02:43:40;;;;;;;10.63;6.70;;;;;;;7.21;96.59;100854.54;1479744;86;21540;-80
2023/05/14 02:46:09;;;;;;;13.13;6.43;;;;;;;7.19;96.93;100847.26;1485350;86;21426;-80
2023/05/14 02:48:35;;;;;;;10.90;6.17;;;;;;;7.21;96.21;100848.44;1465956;87;21596;-80
2023/05/14 02:51:01;;;;;;;9.33;6.37;;;;;;;7.20;96.83;100851.56;1469230;87;21421;-81
2023/05/14 02:53:28;;;;;;;10.57;7.20;;;;;;;7.16;96.94;100847.48;1474908;87;21620;-81
2023/05/14 02:55:54;;;;;;;9.80;7.00;;;;;;;7.14;97.21;100845.92;1487267;87;21390;-80
2023/05/14 02:58:21;;;;;;;10.37;7.13;;;;;;;7.10;97.36;100850.55;1439497;90;21524;-81
2023/05/14 03:00:47;;;;;;;10.83;6.20;;;;;;;7.06;98.02;100845.17;1468617;87;21563;-80
2023/05/14 03:03:13;;;;;;;8.80;6.47;;;;;;;7.02;97.73;100845.05;1476402;87;22390;-80
2023/05/14 03:05:41;;;;;;;10.60;5.93;;;;;;;7.02;97.88;100837.16;1462746;86;21601;-81
2023/05/14 03:08:08;;;;;;;12.57;6.60;;;;;;;7.01;97.83;100836.29;1476415;86;21899;-80
2023/05/14 03:10:34;;;;;;;11.87;6.53;;;;;;;7.03;97.52;100834.88;1483050;87;21500;-80
2023/05/14 03:13:00;;;;;;;8.20;6.03;;;;;;;7.05;97.53;100838.24;1493702;87;21449;-80
2023/05/14 03:15:27;;;;;;;7.70;5.27;;;;;;;7.08;98.19;100835.38;1492788;86;21433;-79
2023/05/14 03:17:53;;;;;;;10.53;7.10;;;;;;;7.08;97.72;100831.42;1466580;87;21599;-79
2023/05/14 03:20:20;;;;;;;12.43;7.70;;;;;;;7.06;98.22;100831.17;1482871;86;21407;-80
2023/05/14 03:22:46;;;;;;;8.10;6.17;;;;;;;7.03;99.42;100832.73;1488133;87;21597;-80
2023/05/14 03:25:12;;;;;;;8.67;6.57;;;;;;;7.02;99.89;100834.52;1477809;87;21444;-80
2023/05/14 03:27:39;;;;;;;8.07;5.27;;;;;;;7.01;100.00;100835.45;1492096;86;22424;-80
2023/05/14 03:30:06;;;;;;;7.90;6.40;;;;;;;7.03;99.85;100827.46;1436528;90;21635;-80
2023/05/14 03:32:33;;;;;;;11.60;5.50;;;;;;;7.06;99.63;100822.80;1426567;90;21324;-81
2023/05/14 03:34:59;;;;;;;7.90;6.03;;;;;;;7.11;99.02;100814.09;1479246;86;21397;-80
2023/05/14 03:37:28;;;;;;;13.57;6.67;;;;;;;7.17;99.00;100830.73;1404109;91;21334;-80
2023/05/14 03:39:53;;;;;;;12.63;6.83;;;;;;;7.23;99.13;100823.68;1475968;86;22273;-80
2023/05/14 03:42:20;;;;;;;8.87;6.03;;;;;;;7.33;98.96;100829.56;1466870;87;21326;-79
2023/05/14 03:44:46;;;;;;;9.53;6.60;;;;;;;7.40;98.58;100833.41;1464805;87;21479;-79
2023/05/14 03:47:12;;;;;;;11.33;6.47;;;;;;;7.48;98.76;100836.31;1479360;87;21996;-80
2023/05/14 03:49:38;;;;;;;10.03;6.60;;;;;;;7.56;98.35;100836.53;1477942;86;21415;-80
2023/05/14 03:52:05;;;;;;;17.93;7.53;;;;;;;7.59;98.64;100828.39;1468564;87;21613;-80
2023/05/14 03:54:31;;;;;;;10.03;5.80;;;;;;;7.66;98.52;100831.41;1498991;86;21455;-80
2023/05/14 03:56:57;;;;;;;12.00;6.60;;;;;;;7.75;98.42;100834.64;1495521;86;21477;-80
2023/05/14 03:59:23;;;;;;;10.50;7.03;;;;;;;7.83;98.59;100830.10;1467099;87;21590;-81
2023/05/14 04:01:50;;;;;;;11.90;7.13;;;;;;;7.93;97.96;100833.67;1480800;86;21545;-80
2023/05/14 04:04:16;;;;;;;9.47;6.30;;;;;;;8.03;97.71;100833.33;1489276;86;21408;-81
2023/05/14 04:06:42;;;;;;;11.33;7.03;;;;;;;8.12;97.62;100833.91;1492918;86;21560;-80
2023/05/14 04:09:09;;;;;;;9.97;6.90;;;;;;;8.22;97.26;100829.21;1463561;87;21436;-80
2023/05/14 04:11:36;;;;;;;10.63;7.17;;;;;;;8.31;97.18;100832.42;1479255;86;21614;-81
2023/05/14 04:14:02;;;;;;;14.47;7.77;;;;;;;8.39;96.81;100835.32;1490114;86;22361;-80
2023/05/14 04:16:28;;;;;;;9.07;6.13;;;;;;;8.48;96.82;100833.74;1469272;86;21718;-80
2023/05/14 04:18:55;;;;;;;9.07;6.20;;;;;;;8.52;96.37;100836.02;1494973;87;22365;-80
2023/05/14 04:21:21;;;;;;;9.67;5.90;;;;;;;8.62;95.97;100835.27;1481388;87;21473;-80
2023/05/14 04:23:48;;;;;;;9.63;6.53;;;;;;;8.76;95.82;100827.06;1482410;87;21485;-80
2023/05/14 04:26:14;;;;;;;9.17;6.10;;;;;;;8.90;95.65;100825.93;1437242;90;21614;-81
2023/05/14 04:28:41;;;;;;;13.17;6.60;;;;;;;9.04;95.24;100825.12;1489211;86;21434;-81
2023/05/14 04:31:07;;;;;;;9.13;6.23;;;;;;;9.11;94.16;100820.66;1486136;86;21441;-81
2023/05/14 04:33:33;;;;;;;9.77;6.43;;;;;;;9.18;93.68;100813.91;1491293;86;21553;-81
2023/05/14 04:36:00;;;;;;;10.67;6.67;;;;;;;9.28;93.73;100808.19;1493663;87;21515;-81
2023/05/14 04:38:27;;;;;;;7.27;5.50;;;;;;;9.39;92.93;100812.08;1485583;87;21526;-81
2023/05/14 04:40:53;;;;;;;8.13;6.13;;;;;;;9.48;92.60;100809.97;1519205;86;21361;-81
2023/05/14 04:43:19;;;;;;;10.63;6.53;;;;;;;9.59;91.95;100816.98;1457157;87;21464;-80
2023/05/14 04:45:46;;;;;;;11.47;6.57;;;;;;;9.66;91.16;100810.67;1377357;90;21493;-81
2023/05/14 04:48:12;;;;;;;9.60;6.43;;;;;;;9.73;90.40;100803.08;1473911;86;22379;-80
2023/05/14 04:50:39;;;;;;;9.93;6.50;;;;;;;9.84;90.40;100798.52;1478609;86;21400;-81
2023/05/14 04:53:05;;;;;;;8.10;5.87;;;;;;;9.90;89.98;100803.27;1475756;86;22323;-80
2023/05/14 04:55:32;;;;;;;10.07;7.00;;;;;;;9.99;89.55;100802.13;1490791;86;23058;-82
2023/05/14 04:57:58;;;;;;;11.80;6.37;;;;;;;10.03;88.05;100806.98;1497946;86;22646;-81
2023/05/14 05:00:24;;;;;;;11.00;6.67;;;;;;;10.13;87.86;100807.03;1490990;87;21463;-81
2023/05/14 05:02:50;;;;;;;8.03;5.90;;;;;;;10.29;88.32;100811.81;1447013;90;21560;-81
2023/05/14 05:05:17;;;;;;;7.97;6.00;;;;;;;10.45;88.05;100807.33;1473389;87;21392;-81
2023/05/14 05:07:43;;;;;;;11.87;6.37;;;;;;;10.58;86.39;100797.30;1479682;86;21345;-81
2023/05/14 05:10:10;;;;;;;9.27;6.27;;;;;;;10.68;84.70;100802.61;1485492;86;21621;-81
2023/05/14 05:12:36;;;;;;;9.50;5.43;;;;;;;10.81;85.65;100792.06;1468129;87;22324;-81
2023/05/14 05:15:03;;;;;;;9.00;5.83;;;;;;;10.90;84.60;100797.50;1489672;87;21574;-81
2023/05/14 05:17:30;;;;;;;7.87;5.40;;;;;;;10.97;83.54;100796.81;1445396;90;22324;-80
2023/05/14 05:19:56;;;;;;;10.43;5.07;;;;;;;11.05;83.29;100796.94;1492713;87;21569;-80
2023/05/14 05:22:23;;;;;;;17.50;6.50;;;;;;;11.16;83.45;100787.98;1495632;87;21411;-82
2023/05/14 05:24:49;;;;;;;8.37;5.80;;;;;;;11.23;82.68;100782.47;1441366;90;21585;-82
2023/05/14 05:27:15;;;;;;;13.20;5.57;;;;;;;11.34;82.51;100785.95;1495172;87;21441;-81
2023/05/14 05:29:45;;;;;;;10.30;7.30;;;;;;;11.44;82.75;100788.89;1446387;90;21427;-80
2023/05/14 05:32:12;;;;;;;10.85;6.03;;;;;;;11.51;81.95;100783.38;1483437;87;22332;-80
2023/05/14 05:34:38;;;;;;;8.80;5.67;;;;;;;11.68;82.63;100780.91;1471054;87;21607;-80
2023/05/14 05:37:04;;;;;;;7.40;5.43;;;;;;;11.81;81.35;100777.45;1489776;86;21397;-82
2023/05/14 05:39:33;;;;;;;7.93;5.47;;;;;;;11.87;80.52;100774.73;1429470;90;21517;-81
2023/05/14 05:42:00;;;;;;;6.83;4.83;;;;;;;11.90;79.64;100773.11;1477110;86;21933;-82
2023/05/14 05:44:26;;;;;;;10.33;5.57;;;;;;;12.02;80.37;100770.59;1487245;86;21495;-82
2023/05/14 05:46:54;;;;;;;6.90;5.17;;;;;;;12.16;80.34;100771.41;1472447;87;21392;-82
2023/05/14 05:49:21;;;;;;;9.13;5.43;;;;;;;12.35;80.45;100761.67;1475911;86;21658;-81
2023/05/14 05:51:47;;;;;;;7.07;5.60;;;;;;;12.59;80.02;100761.88;1482530;87;21604;-82
2023/05/14 05:54:13;;;;;;;17.03;6.00;;;;;;;12.82;79.88;100756.09;1493978;87;21552;-81
2023/05/14 05:56:40;;;;;;;10.63;4.70;;;;;;;13.02;79.17;100755.42;1493729;87;21471;-82
2023/05/14 05:59:06;;;;;;;12.30;5.70;;;;;;;13.19;78.92;100751.87;1485883;86;21414;-82
2023/05/14 06:01:32;;;;;;;5.97;4.07;;;;;;;13.35;77.74;100752.98;1474790;87;21624;-81
2023/05/14 06:03:59;;;;;;;4.60;4.03;;;;;;;13.51;77.49;100753.91;1451038;90;22388;-81
2023/05/14 06:06:25;;;;;;;8.83;3.93;;;;;;;13.69;76.68;100755.65;1488718;86;21500;-81
2023/05/14 06:08:51;;;;;;;7.87;4.00;;;;;;;13.86;75.12;100764.03;1492246;86;21355;-82
2023/05/14 06:11:17;;;;;;;5.40;3.97;;;;;;;14.03;73.75;100752.95;1486720;87;21505;-80
2023/05/14 06:13:44;;;;;;;11.83;4.57;;;;;;;14.16;71.29;100755.16;1440275;90;21466;-81
2023/05/14 06:16:10;;;;;;;10.47;4.67;;;;;;;14.34;72.49;100755.84;1475872;86;21592;-81
2023/05/14 06:18:36;;;;;;;10.83;3.43;;;;;;;14.51;70.13;100751.88;1482890;86;21407;-80
2023/05/14 06:21:03;;;;;;;5.50;4.00;;;;;;;14.63;68.18;100750.08;1481442;86;21599;-82
2023/05/14 06:23:29;;;;;;;8.13;4.23;;;;;;;14.80;69.70;100752.25;1459680;87;22469;-83
2023/05/14 06:25:55;;;;;;;5.77;4.00;;;;;;;14.98;69.63;100756.56;1474085;87;22399;-81
2023/05/14 06:28:22;;;;;;;12.07;3.97;;;;;;;15.10;68.24;100749.40;1466429;87;21399;-81
2023/05/14 06:30:52;;;;;;;6.90;4.30;;;;;;;15.23;67.61;100750.19;1487359;86;21625;-81
2023/05/14 06:33:28;;;;;;;10.53;4.10;;;;;;;15.40;68.16;100744.83;1483571;87;21908;-82
2023/05/14 06:35:48;;;;;;;12.43;4.30;;;;;;;15.53;66.42;100741.09;1479479;86;21778;-81
2023/05/14 06:38:14;;;;;;;7.63;4.37;;;;;;;15.67;66.02;100739.05;1481796;86;21505;-81
2023/05/14 06:40:40;;;;;;;6.23;3.90;;;;;;;15.87;66.25;100732.81;1494829;86;21433;-81
2023/05/14 06:43:06;;;;;;;11.77;4.43;;;;;;;16.06;65.42;100730.22;1495448;87;21434;-81
2023/05/14 06:45:33;;;;;;;7.27;4.27;;;;;;;16.23;64.89;100724.28;1493171;87;21596;-82
2023/05/14 06:47:59;;;;;;;10.83;4.40;;;;;;;16.37;64.38;100723.98;1476358;87;21355;-82
2023/05/14 06:50:25;;;;;;;7.00;4.00;;;;;;;16.52;64.24;100726.23;1471865;87;22444;-81
2023/05/14 06:52:51;;;;;;;9.90;4.67;;;;;;;16.61;63.63;100721.14;1467462;87;21464;-81
2023/05/14 06:55:17;;;;;;;6.77;4.20;;;;;;;16.70;63.42;100715.22;1482685;87;21485;-81
2023/05/14 06:57:44;;;;;;;9.10;4.10;;;;;;;16.73;62.90;100709.52;1494391;87;21411;-82
2023/05/14 07:00:11;;;;;;;5.67;3.37;;;;;;;16.80;62.37;100718.99;1484316;87;21592;-81
2023/05/14 07:02:37;;;;;;;5.97;3.70;;;;;;;16.86;62.01;100712.92;1484440;86;21459;-82
2023/05/14 07:05:04;;;;;;;5.53;3.40;;;;;;;16.98;60.99;100718.17;1469417;87;21443;-81
2023/05/14 07:07:30;;;;;;;7.10;4.00;;;;;;;17.13;60.56;100706.97;1468862;87;21378;-81
2023/05/14 07:09:56;;;;;;;9.33;4.00;;;;;;;17.26;60.50;100708.16;1469709;88;21524;-82
2023/05/14 07:12:23;;;;;;;8.57;3.87;;;;;;;17.34;59.73;100704.06;1469522;87;21562;-81
2023/05/14 07:14:50;;;;;;;8.90;3.90;;;;;;;17.43;59.23;100698.93;1495492;86;21680;-82
2023/05/14 07:17:17;;;;;;;6.37;3.63;;;;;;;17.57;59.17;100703.44;1484547;87;21480;-82
2023/05/14 07:19:43;;;;;;;5.10;3.40;;;;;;;17.73;58.16;100708.28;1476679;87;22410;-81
2023/05/14 07:22:10;;;;;;;8.00;4.47;;;;;;;17.88;57.04;100706.42;1491853;87;21426;-82
2023/05/14 07:24:36;;;;;;;8.37;3.40;;;;;;;17.96;57.09;100708.98;1486982;86;21561;-83
2023/05/14 07:27:02;;;;;;;4.87;3.43;;;;;;;18.13;57.40;100706.09;1485061;86;21369;-80
2023/05/14 07:29:29;;;;;;;7.77;4.47;;;;;;;18.22;55.72;100707.62;1454301;87;21444;-81
2023/05/14 07:31:55;;;;;;;4.47;2.80;;;;;;;18.30;54.97;100699.94;1470459;87;21570;-82
2023/05/14 07:34:22;;;;;;;5.80;3.65;;;;;;;18.41;55.81;100701.63;1466622;86;21381;-82
2023/05/14 07:36:48;;;;;;;6.95;3.17;;;;;;;18.56;54.85;100701.55;1496291;86;21692;-82
2023/05/14 07:39:14;;;;;;;18.67;4.10;;;;;;;18.64;53.76;100703.23;1491356;86;21470;-82
2023/05/14 07:41:40;;;;;;;4.05;3.30;;;;;;;18.67;53.65;100698.34;1493560;87;21703;-86
2023/05/14 07:47:57;;;;;;;6.67;2.85;;;;;;;18.87;53.08;100700.36;1480072;86;21484;-88
2023/05/14 07:50:24;;;;;;;8.65;3.35;;;;;;;19.02;52.18;100697.56;1490631;87;21515;-87
2023/05/14 07:52:50;;;;;;;6.92;2.85;;;;;;;19.11;51.53;100691.05;1473807;87;21481;-86
2023/05/14 07:55:17;;;;;;;7.97;3.70;;;;;;;19.21;50.14;100691.50;1482691;87;21619;-87
2023/05/14 07:57:44;;;;;;;3.00;2.67;;;;;;;19.39;49.62;100694.99;1479084;86;21427;-84
2023/05/14 08:00:12;;;;;;;7.12;3.30;;;;;;;19.51;48.38;100689.40;1491567;86;22387;-83
2023/05/14 08:02:38;;;;;;;5.42;3.55;;;;;;;19.68;47.64;100683.69;1480882;87;21494;-85
2023/05/14 08:05:05;;;;;;;5.47;3.15;;;;;;;19.87;46.83;100684.28;1485021;86;21361;-86
2023/05/14 08:07:32;;;;;;;5.67;2.40;;;;;;;20.06;46.88;100675.97;1444998;90;21590;-87
2023/05/14 08:09:59;;;;;;;4.35;2.62;;;;;;;20.27;46.65;100667.72;1465805;86;22314;-85
2023/05/14 08:12:25;;;;;;;4.67;2.62;;;;;;;20.43;45.57;100661.13;1479228;87;21290;-85
2023/05/14 08:14:52;;;;;;;6.00;3.05;;;;;;;20.57;44.40;100651.23;1465504;86;21648;-88
2023/05/14 08:17:18;;;;;;;6.05;3.17;;;;;;;20.65;43.29;100650.17;1431075;87;22293;-87
2023/05/14 08:19:45;;;;;;;4.58;2.90;;;;;;;20.62;41.98;100650.59;1412895;90;22508;-86
2023/05/14 08:22:11;;;;;;;9.60;2.80;;;;;;;20.47;40.98;100643.53;1472172;86;21290;-87
2023/05/14 08:24:38;;;;;;;6.20;2.50;;;;;;;20.42;41.84;100639.28;1446736;87;21456;-86
2023/05/14 08:27:05;;;;;;;4.78;2.77;;;;;;;20.47;42.60;100635.47;1431611;86;22093;-87
2023/05/14 08:29:31;;;;;;;4.50;2.62;;;;;;;20.50;41.38;100636.91;1510380;87;22182;-87
2023/05/14 08:31:57;;;;;;;7.42;2.85;;;;;;;20.55;41.50;100637.68;1481196;86;22626;-86
2023/05/14 08:34:24;;;;;;;3.52;2.70;;;;;;;20.59;41.22;100634.34;1452673;87;21568;-85
2023/05/14 08:36:51;;;;;;;4.75;2.58;;;;;;;20.72;41.30;100634.87;1476822;86;21540;-89
2023/05/14 08:39:17;;;;;;;3.83;2.77;;;;;;;20.88;41.40;100626.86;1476145;87;21434;-85
2023/05/14 08:41:44;;;;;;;6.60;2.60;;;;;;;20.95;39.54;100629.03;1473033;86;21355;-85
2023/05/14 08:44:20;;;;;;;7.47;2.52;;;;;;;21.07;40.43;100631.37;1471092;86;21558;-86
2023/05/14 08:46:48;;;;;;;7.83;2.50;;;;;;;21.21;40.09;100614.66;1446421;90;22441;-87
2023/05/14 08:49:35;;;;;;;6.08;2.30;;;;;;;21.36;39.83;100614.39;1492928;87;21567;-87
2023/05/14 08:52:01;;;;;;;7.78;2.30;;;;;;;21.36;39.83;100614.39;1478345;86;21595;-88
2023/05/14 08:54:31;;;;;;;5.78;2.65;;;;;;;21.56;39.48;100612.45;1484152;86;21415;-88
2023/05/14 08:56:58;;;;;;;6.17;2.60;;;;;;;21.70;39.48;100623.16;1484755;86;21670;-86
2023/05/14 08:59:24;;;;;;;2.45;2.22;;;;;;;21.83;38.81;100616.33;1432261;90;21444;-88
2023/05/14 09:01:53;;;;;;;4.70;2.60;;;;;;;21.97;39.22;100618.42;1461457;86;21615;-86
2023/05/14 09:04:24;;;;;;;2.75;1.77;;;;;;;22.08;38.06;100612.33;1441457;87;22407;-88
2023/05/14 09:06:55;;;;;;;6.92;2.40;;;;;;;22.05;37.51;100618.98;1471540;87;21512;-85
2023/05/14 09:09:22;;;;;;;6.33;2.80;;;;;;;22.01;35.47;100612.39;1470242;87;21385;-85
2023/05/14 09:11:50;;;;;;;3.47;2.02;;;;;;;21.94;36.58;100616.98;1489814;87;21360;-86
2023/05/14 09:14:17;;;;;;;5.53;2.10;;;;;;;21.86;36.68;100610.50;1459572;86;22182;-87
2023/05/14 09:16:48;;;;;;;7.00;2.62;;;;;;;21.80;35.93;100611.38;1457944;87;21302;-86
2023/05/14 09:19:17;;;;;;;4.40;2.22;;;;;;;21.74;36.74;100605.52;1486277;87;21312;-89
2023/05/14 09:21:48;;;;;;;6.45;2.90;;;;;;;21.76;36.64;100602.09;1473516;87;21465;-88
2023/05/14 09:24:30;;;;;;;13.93;2.62;;;;;;;21.76;36.73;100606.13;1454304;86;21425;-87
2023/05/14 09:26:57;;;;;;;6.03;2.35;;;;;;;21.68;36.25;100598.30;1404206;90;21312;-88
2023/05/14 09:29:28;;;;;;;5.00;1.92;;;;;;;21.72;36.41;100594.97;1453225;87;21363;-86
2023/05/14 09:31:57;;;;;;;3.87;2.37;;;;;;;21.79;36.25;100588.19;1450063;87;21289;-87
2023/05/14 09:34:32;;;;;;;10.05;2.62;;;;;;;21.81;36.08;100579.37;1439217;87;21356;-87
2023/05/14 09:37:06;;;;;;;3.50;2.00;;;;;;;21.85;35.38;100573.84;1448840;87;21348;-88
2023/05/14 09:39:35;;;;;;;3.95;2.30;;;;;;;21.99;36.21;100586.17;1450750;86;21522;-89
2023/05/14 09:42:02;;;;;;;4.42;2.15;;;;;;;22.04;35.40;100572.87;1430329;90;21317;-90
2023/05/14 09:44:28;;;;;;;9.23;3.00;;;;;;;22.14;35.67;100576.94;1463641;87;21356;-88
2023/05/14 09:46:55;;;;;;;4.22;2.37;;;;;;;22.16;35.02;100566.77;1466862;87;21458;-88
2023/05/14 09:49:21;;;;;;;3.52;1.80;;;;;;;22.28;35.44;100559.64;1394224;90;21452;-86
2023/05/14 09:51:49;;;;;;;6.53;2.15;;;;;;;22.46;35.63;100551.56;1456435;87;21287;-87
2023/05/14 09:54:17;;;;;;;5.45;2.40;;;;;;;22.65;35.50;100544.86;1444335;90;21398;-89
2023/05/14 09:56:44;;;;;;;2.60;1.77;;;;;;;22.70;34.48;100539.59;1483729;86;21494;-84
2023/05/14 09:59:10;;;;;;;5.37;1.75;;;;;;;22.74;34.60;100529.48;1479251;86;21414;-86
2023/05/14 10:01:38;;;;;;;6.90;2.50;;;;;;;22.75;34.08;100524.91;1432485;87;21456;-87
2023/05/14 10:04:07;;;;;;;2.90;1.90;;;;;;;22.74;33.80;100521.92;1473960;87;22449;-86
2023/05/14 10:06:38;;;;;;;4.25;2.10;;;;;;;22.78;34.49;100516.89;1472943;87;21693;-86
2023/05/14 10:09:09;;;;;;;10.10;2.47;;;;;;;22.83;34.33;100516.52;1444600;90;22462;-86
2023/05/14 10:11:37;;;;;;;3.15;1.67;;;;;;;22.81;34.10;100514.56;1482998;86;21381;-83
2023/05/14 10:14:17;;;;;;;5.28;1.80;;;;;;;22.77;33.44;100502.58;1491978;87;21539;-83
2023/05/14 10:16:52;;;;;;;12.33;8.30;;;;;;;22.71;34.15;100508.89;1442045;90;21353;-85
2023/05/14 10:19:22;;;;;;;12.33;2.10;;;;;;;22.75;34.00;100514.12;1497739;86;21499;-86
2023/05/14 10:21:54;;;;;;;5.05;2.10;;;;;;;22.75;34.30;100512.77;1463622;88;21672;-85
2023/05/14 10:24:21;;;;;;;6.97;2.02;;;;;;;22.83;34.14;100518.39;1489403;86;21441;-88
2023/05/14 10:26:47;;;;;;;5.20;1.70;;;;;;;23.00;34.48;100514.06;1480051;86;21481;-87
2023/05/14 10:29:14;;;;;;;3.55;2.30;;;;;;;23.08;33.79;100503.48;1481971;86;21569;-87
2023/05/14 10:31:54;;;;;;;7.62;2.08;;;;;;;23.09;33.66;100496.48;1489879;86;21625;-86
2023/05/14 10:34:45;;;;;;;7.42;1.87;;;;;;;23.10;33.60;100494.11;1476418;87;21607;-87
2023/05/14 10:37:18;;;;;;;4.20;1.87;;;;;;;23.12;34.51;100491.16;1451355;87;21525;-86
2023/05/14 10:39:58;;;;;;;4.22;1.98;;;;;;;23.23;34.54;100489.04;1473102;87;21463;-86
2023/05/14 10:42:39;;;;;;;2.92;1.87;;;;;;;23.29;34.13;100488.65;1483158;87;21621;-85
2023/05/14 10:45:08;;;;;;;4.45;2.20;;;;;;;23.35;33.29;100487.19;1455388;88;21271;-86
2023/05/14 10:47:37;;;;;;;8.93;2.57;;;;;;;23.35;33.59;100479.09;1468281;87;22185;-86
2023/05/14 10:50:07;;;;;;;8.93;1.67;;;;;;;23.34;33.36;100476.10;1452023;86;21272;-84
2023/05/14 10:52:35;;;;;;;3.75;1.90;;;;;;;23.29;32.99;100470.56;1446662;87;22247;-85
2023/05/14 10:55:09;;;;;;;3.22;1.92;;;;;;;23.25;33.64;100488.29;1468999;86;21302;-86
2023/05/14 10:57:40;;;;;;;4.42;2.22;;;;;;;23.14;33.17;100479.09;1469389;87;21592;-85
2023/05/14 11:00:09;;;;;;;4.70;1.77;;;;;;;23.01;32.41;100461.72;1478426;87;21466;-88
2023/05/14 11:02:38;;;;;;;5.95;2.25;;;;;;;22.83;33.02;100464.44;1490995;87;22211;-86
2023/05/14 11:05:15;;;;;;;7.37;2.52;;;;;;;22.76;33.70;100463.17;1431564;90;21620;-87
2023/05/14 11:07:48;;;;;;;3.98;2.17;;;;;;;22.73;34.11;100452.31;1491418;86;21486;-88
2023/05/14 11:10:17;;;;;;;6.27;2.07;;;;;;;22.74;34.24;100457.17;1442005;86;21478;-87
2023/05/14 11:12:47;;;;;;;4.87;2.23;;;;;;;22.64;33.30;100451.48;1451347;87;22192;-80
2023/05/14 11:15:23;;;;;;;7.85;5.00;;;;;;;22.56;33.22;100447.73;1461088;87;21667;-86
2023/05/14 11:17:52;;;;;;;12.78;7.85;;;;;;;22.52;33.71;100450.89;1518482;87;22228;-78
2023/05/14 11:20:19;;;;;;;8.65;3.90;;;;;;;22.44;33.50;100439.08;1522074;87;21302;-79
2023/05/14 11:22:48;;;;;;;7.33;3.83;;;;;;;22.34;32.81;100440.65;1476886;87;21473;-79
2023/05/14 11:25:14;;;;;;;3.70;2.02;;;;;;;22.27;32.95;100444.77;1441413;88;21678;-78
2023/05/14 11:27:43;;;;;;;5.35;2.37;;;;;;;22.17;33.44;100441.73;1439549;89;21497;-78
2023/05/14 11:30:18;;;;;;;2.47;2.27;;;;;;;22.08;33.49;100435.80;1486808;86;21428;-78
2023/05/14 11:32:47;;;;;;;6.67;2.85;;;;;;;21.98;34.08;100434.98;1447861;90;21450;-77
2023/05/14 11:35:14;;;;;;;2.85;1.90;;;;;;;22.00;34.39;100426.13;1480451;86;21319;-77